sensor_id;sensor_type;location;lat;lon;timestamp;pressure;altitude;pressure_sealevel;temperature;humidity
51053;BME280;37093;37.716;-122.060;2024-03-02T00:02:19;99284.60;;;12.81;89.56
51053;BME280;37093;37.716;-122.060;2024-03-02T00:04:47;99277.89;;;12.02;88.38
51053;BME280;37093;37.716;-122.060;2024-03-02T00:07:09;99282.91;;;12.20;95.81
51053;BME280;37093;37.716;-122.060;2024-03-02T00:09:34;99271.38;;;11.10;100.00
51053;BME280;37093;37.716;-122.060;2024-03-02T00:12:00;99272.32;;;12.17;100.00
51053;BME280;37093;37.716;-122.060;2024-03-02T00:14:24;99267.49;;;13.14;95.03
51053;BME280;37093;37.716;-122.060;2024-03-02T00:16:51;99263.91;;;12.49;95.29
51053;BME280;37093;37.716;-122.060;2024-03-02T00:19:14;99263.41;;;12.24;96.67
51053;BME280;37093;37.716;-122.060;2024-03-02T00:21:40;99261.23;;;11.70;98.77
51053;BME280;37093;37.716;-122.060;2024-03-02T00:24:12;99267.77;;;11.91;97.11
51053;BME280;37093;37.716;-122.060;2024-03-02T00:26:30;99266.61;;;11.59;96.83
51053;BME280;37093;37.716;-122.060;2024-03-02T00:28:56;99257.87;;;11.94;91.47
51053;BME280;37093;37.716;-122.060;2024-03-02T00:31:22;99256.39;;;11.93;92.56
51053;BME280;37093;37.716;-122.060;2024-03-02T00:33:45;99263.48;;;11.36;92.73
51053;BME280;37093;37.716;-122.060;2024-03-02T00:36:11;99256.09;;;12.37;87.66
51053;BME280;37093;37.716;-122.060;2024-03-02T00:38:39;99250.99;;;12.48;85.70
51053;BME280;37093;37.716;-122.060;2024-03-02T00:41:04;99252.31;;;12.34;84.83
51053;BME280;37093;37.716;-122.060;2024-03-02T00:43:43;99241.75;;;12.16;86.31
51053;BME280;37093;37.716;-122.060;2024-03-02T00:45:50;99245.97;;;11.93;84.13
51053;BME280;37093;37.716;-122.060;2024-03-02T00:48:16;99238.31;;;11.35;88.44
51053;BME280;37093;37.716;-122.060;2024-03-02T00:50:40;99237.28;;;12.31;85.68
51053;BME280;37093;37.716;-122.060;2024-03-02T00:53:20;99254.83;;;11.82;85.73
51053;BME280;37093;37.716;-122.060;2024-03-02T00:55:31;99252.73;;;11.13;94.09
51053;BME280;37093;37.716;-122.060;2024-03-02T00:57:58;99237.65;;;11.09;98.63
51053;BME280;37093;37.716;-122.060;2024-03-02T01:00:21;99244.75;;;10.61;100.00
51053;BME280;37093;37.716;-122.060;2024-03-02T01:02:50;99236.56;;;11.02;100.00
51053;BME280;37093;37.716;-122.060;2024-03-02T01:05:13;99246.31;;;10.67;100.00
51053;BME280;37093;37.716;-122.060;2024-03-02T01:07:38;99245.64;;;11.87;97.08
51053;BME280;37093;37.716;-122.060;2024-03-02T01:10:01;99246.01;;;10.83;98.38
51053;BME280;37093;37.716;-122.060;2024-03-02T01:12:26;99248.53;;;11.67;96.23
51053;BME280;37093;37.716;-122.060;2024-03-02T01:14:51;99246.68;;;11.43;99.94
51053;BME280;37093;37.716;-122.060;2024-03-02T01:17:19;99258.06;;;10.95;100.00
51053;BME280;37093;37.716;-122.060;2024-03-02T01:19:43;99254.98;;;11.14;100.00
51053;BME280;37093;37.716;-122.060;2024-03-02T01:22:07;99263.41;;;10.97;100.00
51053;BME280;37093;37.716;-122.060;2024-03-02T01:24:31;99257.38;;;11.68;100.00
51053;BME280;37093;37.716;-122.060;2024-03-02T01:27:00;99255.65;;;12.26;95.86
51053;BME280;37093;37.716;-122.060;2024-03-02T01:29:22;99252.65;;;12.19;95.87
51053;BME280;37093;37.716;-122.060;2024-03-02T01:31:48;99261.58;;;11.80;98.00
51053;BME280;37093;37.716;-122.060;2024-03-02T01:34:11;99252.50;;;12.12;96.69
51053;BME280;37093;37.716;-122.060;2024-03-02T01:36:37;99246.41;;;11.35;98.86
51053;BME280;37093;37.716;-122.060;2024-03-02T01:39:02;99253.69;;;11.24;100.00
51053;BME280;37093;37.716;-122.060;2024-03-02T01:41:27;99248.18;;;11.06;100.00
51053;BME280;37093;37.716;-122.060;2024-03-02T01:43:53;99239.50;;;11.33;100.00
51053;BME280;37093;37.716;-122.060;2024-03-02T01:46:18;99244.48;;;11.29;100.00
51053;BME280;37093;37.716;-122.060;2024-03-02T01:48:42;99237.70;;;11.09;100.00
51053;BME280;37093;37.716;-122.060;2024-03-02T01:51:09;99235.29;;;11.37;100.00
51053;BME280;37093;37.716;-122.060;2024-03-02T01:53:34;99236.01;;;11.77;100.00
51053;BME280;37093;37.716;-122.060;2024-03-02T01:56:04;99233.84;;;12.87;94.91
51053;BME280;37093;37.716;-122.060;2024-03-02T01:58:23;99223.16;;;13.30;92.12
51053;BME280;37093;37.716;-122.060;2024-03-02T02:00:54;99224.69;;;12.16;93.10
51053;BME280;37093;37.716;-122.060;2024-03-02T02:03:19;99220.81;;;12.92;91.04
51053;BME280;37093;37.716;-122.060;2024-03-02T02:05:40;99220.98;;;11.63;93.67
51053;BME280;37093;37.716;-122.060;2024-03-02T02:08:04;99214.67;;;12.16;96.65
51053;BME280;37093;37.716;-122.060;2024-03-02T02:10:49;99217.25;;;11.97;97.04
51053;BME280;37093;37.716;-122.060;2024-03-02T02:13:16;99215.06;;;11.73;99.54
51053;BME280;37093;37.716;-122.060;2024-03-02T02:15:49;99211.77;;;12.84;94.01
51053;BME280;37093;37.716;-122.060;2024-03-02T02:18:11;99217.05;;;12.84;96.44
51053;BME280;37093;37.716;-122.060;2024-03-02T02:20:32;99212.72;;;12.69;93.56
51053;BME280;37093;37.716;-122.060;2024-03-02T02:23:05;99206.19;;;13.89;89.38
51053;BME280;37093;37.716;-122.060;2024-03-02T02:25:21;99209.05;;;13.23;89.68
51053;BME280;37093;37.716;-122.060;2024-03-02T02:27:56;99211.77;;;13.21;90.91
51053;BME280;37093;37.716;-122.060;2024-03-02T02:30:14;99209.32;;;13.08;92.17
51053;BME280;37093;37.716;-122.060;2024-03-02T02:32:38;99208.93;;;13.33;89.46
51053;BME280;37093;37.716;-122.060;2024-03-02T02:35:01;99210.32;;;12.26;96.06
51053;BME280;37093;37.716;-122.060;2024-03-02T02:37:30;99207.65;;;12.21;95.77
51053;BME280;37093;37.716;-122.060;2024-03-02T02:39:58;99201.72;;;12.66;93.98
51053;BME280;37093;37.716;-122.060;2024-03-02T02:42:20;99196.74;;;11.78;95.45
51053;BME280;37093;37.716;-122.060;2024-03-02T02:44:42;99195.85;;;11.49;98.17
51053;BME280;37093;37.716;-122.060;2024-03-02T02:47:09;99188.12;;;12.69;94.63
51053;BME280;37093;37.716;-122.060;2024-03-02T02:49:44;99168.30;;;13.03;89.87
51053;BME280;37093;37.716;-122.060;2024-03-02T02:52:16;99172.77;;;12.72;91.04
51053;BME280;37093;37.716;-122.060;2024-03-02T02:54:24;99172.13;;;12.88;91.43
51053;BME280;37093;37.716;-122.060;2024-03-02T02:57:15;99167.41;;;12.86;90.73
51053;BME280;37093;37.716;-122.060;2024-03-02T02:59:37;99183.80;;;12.30;97.18
51053;BME280;37093;37.716;-122.060;2024-03-02T03:03:23;99177.75;;;12.20;99.65
51053;BME280;37093;37.716;-122.060;2024-03-02T03:05:22;99184.31;;;12.17;99.91
51053;BME280;37093;37.716;-122.060;2024-03-02T03:07:44;99191.89;;;11.94;99.16
51053;BME280;37093;37.716;-122.060;2024-03-02T03:10:11;99195.26;;;12.27;97.04
51053;BME280;37093;37.716;-122.060;2024-03-02T03:12:42;99207.62;;;11.41;100.00
51053;BME280;37093;37.716;-122.060;2024-03-02T03:15:09;99213.52;;;11.70;100.00
51053;BME280;37093;37.716;-122.060;2024-03-02T03:17:31;99203.10;;;11.46;100.00
51053;BME280;37093;37.716;-122.060;2024-03-02T03:20:07;99210.98;;;11.06;100.00
51053;BME280;37093;37.716;-122.060;2024-03-02T03:22:16;99211.92;;;12.16;100.00
51053;BME280;37093;37.716;-122.060;2024-03-02T03:24:40;99212.65;;;11.70;100.00
51053;BME280;37093;37.716;-122.060;2024-03-02T03:27:06;99220.51;;;11.97;99.93
51053;BME280;37093;37.716;-122.060;2024-03-02T03:30:08;99218.87;;;12.38;99.47
51053;BME280;37093;37.716;-122.060;2024-03-02T03:32:01;99215.77;;;11.75;100.00
51053;BME280;37093;37.716;-122.060;2024-03-02T03:34:40;99205.61;;;12.87;96.08
51053;BME280;37093;37.716;-122.060;2024-03-02T03:37:11;99196.11;;;13.80;88.70
51053;BME280;37093;37.716;-122.060;2024-03-02T03:39:31;99184.01;;;13.51;87.58
51053;BME280;37093;37.716;-122.060;2024-03-02T03:41:50;99178.67;;;13.16;91.25
51053;BME280;37093;37.716;-122.060;2024-03-02T03:45:01;99166.38;;;14.17;84.37
51053;BME280;37093;37.716;-122.060;2024-03-02T03:47:17;99165.04;;;12.73;90.50
51053;BME280;37093;37.716;-122.060;2024-03-02T03:49:42;99173.31;;;12.62;93.67
51053;BME280;37093;37.716;-122.060;2024-03-02T03:52:09;99167.65;;;11.37;98.89
51053;BME280;37093;37.716;-122.060;2024-03-02T03:54:33;99158.81;;;12.82;93.17
51053;BME280;37093;37.716;-122.060;2024-03-02T03:57:19;99155.97;;;12.08;97.39
51053;BME280;37093;37.716;-122.060;2024-03-02T03:59:42;99153.66;;;11.85;96.92
51053;BME280;37093;37.716;-122.060;2024-03-02T04:02:06;99147.57;;;11.70;98.46
51053;BME280;37093;37.716;-122.060;2024-03-02T04:04:31;99146.20;;;12.15;97.00
51053;BME280;37093;37.716;-122.060;2024-03-02T04:08:24;99149.96;;;11.13;100.00
51053;BME280;37093;37.716;-122.060;2024-03-02T04:10:18;99144.78;;;11.16;100.00
51053;BME280;37093;37.716;-122.060;2024-03-02T04:12:41;99149.84;;;12.32;96.44
51053;BME280;37093;37.716;-122.060;2024-03-02T04:15:07;99141.77;;;11.73;97.58
51053;BME280;37093;37.716;-122.060;2024-03-02T04:18:12;99134.71;;;11.43;98.44
51053;BME280;37093;37.716;-122.060;2024-03-02T04:20:24;99135.52;;;11.75;96.65
51053;BME280;37093;37.716;-122.060;2024-03-02T04:22:50;99123.36;;;11.39;99.78
51053;BME280;37093;37.716;-122.060;2024-03-02T04:25:20;99120.14;;;10.97;100.00
51053;BME280;37093;37.716;-122.060;2024-03-02T04:28:02;99125.68;;;11.81;96.87
51053;BME280;37093;37.716;-122.060;2024-03-02T04:30:07;99109.81;;;11.51;94.45
51053;BME280;37093;37.716;-122.060;2024-03-02T04:32:43;99107.61;;;11.21;98.79
51053;BME280;37093;37.716;-122.060;2024-03-02T04:34:57;99115.47;;;12.82;93.97
51053;BME280;37093;37.716;-122.060;2024-03-02T04:37:24;99126.03;;;12.42;94.72
51053;BME280;37093;37.716;-122.060;2024-03-02T04:40:11;99133.34;;;12.05;100.00
51053;BME280;37093;37.716;-122.060;2024-03-02T04:42:19;99147.40;;;11.33;100.00
51053;BME280;37093;37.716;-122.060;2024-03-02T04:44:37;99148.32;;;11.35;100.00
51053;BME280;37093;37.716;-122.060;2024-03-02T04:47:02;99125.33;;;10.11;100.00
51053;BME280;37093;37.716;-122.060;2024-03-02T04:49:28;99112.45;;;9.24;100.00
51053;BME280;37093;37.716;-122.060;2024-03-02T04:52:43;99132.20;;;8.39;100.00
51053;BME280;37093;37.716;-122.060;2024-03-02T04:54:35;99133.83;;;8.83;100.00
51053;BME280;37093;37.716;-122.060;2024-03-02T04:56:42;99152.20;;;8.86;100.00
51053;BME280;37093;37.716;-122.060;2024-03-02T04:59:57;99155.88;;;9.26;100.00
51053;BME280;37093;37.716;-122.060;2024-03-02T05:01:48;99155.00;;;10.00;100.00
51053;BME280;37093;37.716;-122.060;2024-03-02T05:11:31;99163.13;;;12.28;100.00
51053;BME280;37093;37.716;-122.060;2024-03-02T05:14:03;99183.52;;;10.67;100.00
51053;BME280;37093;37.716;-122.060;2024-03-02T05:16:09;99174.19;;;11.26;100.00
51053;BME280;37093;37.716;-122.060;2024-03-02T05:18:47;99173.82;;;8.90;100.00
51053;BME280;37093;37.716;-122.060;2024-03-02T05:21:33;99151.03;;;8.93;100.00
51053;BME280;37093;37.716;-122.060;2024-03-02T05:24:07;99145.99;;;8.71;100.00
51053;BME280;37093;37.716;-122.060;2024-03-02T05:26:24;99134.45;;;8.76;100.00
51053;BME280;37093;37.716;-122.060;2024-03-02T05:28:47;99150.67;;;9.56;100.00
51053;BME280;37093;37.716;-122.060;2024-03-02T05:32:01;99173.15;;;8.22;100.00
51053;BME280;37093;37.716;-122.060;2024-03-02T05:34:30;99168.42;;;9.28;100.00
51053;BME280;37093;37.716;-122.060;2024-03-02T05:37:23;99162.79;;;11.10;100.00
51053;BME280;37093;37.716;-122.060;2024-03-02T05:39:39;99172.86;;;11.33;100.00
51053;BME280;37093;37.716;-122.060;2024-03-02T05:41:43;99176.99;;;11.57;100.00
51053;BME280;37093;37.716;-122.060;2024-03-02T05:44:36;99178.41;;;12.15;100.00
51053;BME280;37093;37.716;-122.060;2024-03-02T05:46:40;99163.41;;;10.42;100.00
51053;BME280;37093;37.716;-122.060;2024-03-02T05:49:01;99165.98;;;10.63;100.00
51053;BME280;37093;37.716;-122.060;2024-03-02T05:51:26;99165.52;;;10.47;100.00
51053;BME280;37093;37.716;-122.060;2024-03-02T05:53:49;99150.95;;;10.10;100.00
51053;BME280;37093;37.716;-122.060;2024-03-02T05:56:15;99141.12;;;8.46;100.00
51053;BME280;37093;37.716;-122.060;2024-03-02T05:59:13;99155.50;;;9.27;100.00
51053;BME280;37093;37.716;-122.060;2024-03-02T06:01:06;99180.20;;;8.13;100.00
51053;BME280;37093;37.716;-122.060;2024-03-02T06:03:47;99166.36;;;10.07;100.00
51053;BME280;37093;37.716;-122.060;2024-03-02T06:09:48;99167.15;;;10.12;100.00
51053;BME280;37093;37.716;-122.060;2024-03-02T06:12:09;99170.24;;;9.81;100.00
51053;BME280;37093;37.716;-122.060;2024-03-02T06:14:23;99171.23;;;11.15;100.00
51053;BME280;37093;37.716;-122.060;2024-03-02T06:16:51;99180.40;;;11.62;100.00
51053;BME280;37093;37.716;-122.060;2024-03-02T06:19:22;99178.20;;;11.09;100.00
51053;BME280;37093;37.716;-122.060;2024-03-02T06:22:04;99181.63;;;10.83;100.00
51053;BME280;37093;37.716;-122.060;2024-03-02T06:26:22;99167.94;;;10.56;100.00
51053;BME280;37093;37.716;-122.060;2024-03-02T06:27:26;99171.43;;;11.85;100.00
51053;BME280;37093;37.716;-122.060;2024-03-02T06:30:20;99163.36;;;11.27;100.00
51053;BME280;37093;37.716;-122.060;2024-03-02T06:33:42;99175.57;;;11.87;100.00
51053;BME280;37093;37.716;-122.060;2024-03-02T06:36:48;99179.43;;;12.06;100.00
51053;BME280;37093;37.716;-122.060;2024-03-02T06:37:33;99183.50;;;11.76;100.00
51053;BME280;37093;37.716;-122.060;2024-03-02T06:40:43;99188.49;;;12.23;100.00
51053;BME280;37093;37.716;-122.060;2024-03-02T06:43:06;99182.49;;;12.47;100.00
51053;BME280;37093;37.716;-122.060;2024-03-02T06:49:14;99175.60;;;13.08;100.00
51053;BME280;37093;37.716;-122.060;2024-03-02T06:52:51;99179.37;;;12.00;100.00
51053;BME280;37093;37.716;-122.060;2024-03-02T06:56:00;99168.85;;;12.54;100.00
51053;BME280;37093;37.716;-122.060;2024-03-02T07:00:49;99161.35;;;12.39;100.00
51053;BME280;37093;37.716;-122.060;2024-03-02T07:03:24;99158.28;;;12.14;100.00
51053;BME280;37093;37.716;-122.060;2024-03-02T07:05:43;99157.56;;;12.40;100.00
51053;BME280;37093;37.716;-122.060;2024-03-02T07:08:21;99154.71;;;12.66;100.00
51053;BME280;37093;37.716;-122.060;2024-03-02T07:10:27;99141.13;;;10.47;100.00
51053;BME280;37093;37.716;-122.060;2024-03-02T07:12:48;99137.98;;;12.02;100.00
51053;BME280;37093;37.716;-122.060;2024-03-02T07:15:58;99207.12;;;10.14;100.00
51053;BME280;37093;37.716;-122.060;2024-03-02T07:18:44;99203.66;;;9.45;100.00
51053;BME280;37093;37.716;-122.060;2024-03-02T07:21:24;99194.67;;;8.74;100.00
51053;BME280;37093;37.716;-122.060;2024-03-02T07:24:01;99198.27;;;8.93;100.00
51053;BME280;37093;37.716;-122.060;2024-03-02T07:27:58;99180.68;;;9.04;100.00
51053;BME280;37093;37.716;-122.060;2024-03-02T07:28:26;99188.23;;;9.08;100.00
51053;BME280;37093;37.716;-122.060;2024-03-02T07:32:26;99173.37;;;10.84;100.00
51053;BME280;37093;37.716;-122.060;2024-03-02T07:35:01;99173.73;;;10.39;100.00
51053;BME280;37093;37.716;-122.060;2024-03-02T07:37:15;99173.23;;;12.10;100.00
51053;BME280;37093;37.716;-122.060;2024-03-02T07:40:23;99162.49;;;11.94;100.00
51053;BME280;37093;37.716;-122.060;2024-03-02T07:42:38;99166.51;;;12.93;100.00
51053;BME280;37093;37.716;-122.060;2024-03-02T07:45:18;99157.72;;;13.10;100.00
51053;BME280;37093;37.716;-122.060;2024-03-02T07:47:52;99164.15;;;12.28;100.00
51053;BME280;37093;37.716;-122.060;2024-03-02T07:50:05;99151.72;;;13.20;99.56
51053;BME280;37093;37.716;-122.060;2024-03-02T07:52:19;99146.29;;;13.62;97.91
51053;BME280;37093;37.716;-122.060;2024-03-02T07:55:50;99145.51;;;13.63;99.01
51053;BME280;37093;37.716;-122.060;2024-03-02T07:58:17;99138.17;;;14.05;95.45
51053;BME280;37093;37.716;-122.060;2024-03-02T08:00:57;99133.59;;;14.22;92.55
51053;BME280;37093;37.716;-122.060;2024-03-02T08:04:06;99134.72;;;14.53;92.12
51053;BME280;37093;37.716;-122.060;2024-03-02T08:06:40;99132.13;;;13.95;93.75
51053;BME280;37093;37.716;-122.060;2024-03-02T08:08:42;99137.66;;;14.00;94.01
51053;BME280;37093;37.716;-122.060;2024-03-02T08:11:07;99142.69;;;12.72;96.82
51053;BME280;37093;37.716;-122.060;2024-03-02T08:13:33;99124.71;;;13.26;97.19
51053;BME280;37093;37.716;-122.060;2024-03-02T08:16:10;99118.00;;;13.05;99.48
51053;BME280;37093;37.716;-122.060;2024-03-02T08:18:25;99112.42;;;13.38;95.89
51053;BME280;37093;37.716;-122.060;2024-03-02T08:20:47;99123.35;;;13.93;93.70
51053;BME280;37093;37.716;-122.060;2024-03-02T08:23:19;99135.87;;;13.37;95.13
51053;BME280;37093;37.716;-122.060;2024-03-02T08:25:37;99146.65;;;13.11;98.02
51053;BME280;37093;37.716;-122.060;2024-03-02T08:28:03;99181.05;;;10.77;100.00
51053;BME280;37093;37.716;-122.060;2024-03-02T08:30:30;99186.56;;;9.45;100.00
51053;BME280;37093;37.716;-122.060;2024-03-02T08:33:01;99176.14;;;8.11;100.00
51053;BME280;37093;37.716;-122.060;2024-03-02T08:35:20;99171.23;;;8.63;100.00
51053;BME280;37093;37.716;-122.060;2024-03-02T08:37:44;99158.83;;;8.26;100.00
51053;BME280;37093;37.716;-122.060;2024-03-02T08:40:12;99160.96;;;9.65;100.00
51053;BME280;37093;37.716;-122.060;2024-03-02T08:42:40;99158.92;;;7.55;100.00
51053;BME280;37093;37.716;-122.060;2024-03-02T08:45:03;99173.34;;;7.80;100.00
51053;BME280;37093;37.716;-122.060;2024-03-02T09:04:40;99165.00;;;11.53;100.00
51053;BME280;37093;37.716;-122.060;2024-03-02T09:07:00;99172.59;;;11.23;99.98
51053;BME280;37093;37.716;-122.060;2024-03-02T09:10:43;99170.09;;;11.82;100.00
51053;BME280;37093;37.716;-122.060;2024-03-02T09:13:07;99174.18;;;11.53;99.44
51053;BME280;37093;37.716;-122.060;2024-03-02T09:16:32;99172.67;;;12.19;99.65
51053;BME280;37093;37.716;-122.060;2024-03-02T09:19:28;99165.61;;;13.14;93.66
51053;BME280;37093;37.716;-122.060;2024-03-02T09:21:44;99169.48;;;12.97;93.37
51053;BME280;37093;37.716;-122.060;2024-03-02T09:24:13;99163.39;;;13.84;89.58
51053;BME280;37093;37.716;-122.060;2024-03-02T09:27:27;99169.38;;;13.57;89.13
51053;BME280;37093;37.716;-122.060;2024-03-02T09:29:58;99158.70;;;13.33;89.91
51053;BME280;37093;37.716;-122.060;2024-03-02T09:33:15;99182.64;;;12.81;91.74
51053;BME280;37093;37.716;-122.060;2024-03-02T09:35:04;99207.65;;;11.63;95.68
51053;BME280;37093;37.716;-122.060;2024-03-02T09:37:37;99203.00;;;10.53;100.00
51053;BME280;37093;37.716;-122.060;2024-03-02T09:47:39;99203.69;;;9.81;100.00
51053;BME280;37093;37.716;-122.060;2024-03-02T09:49:24;99194.24;;;9.11;100.00
51053;BME280;37093;37.716;-122.060;2024-03-02T09:52:12;99197.96;;;10.26;100.00
51053;BME280;37093;37.716;-122.060;2024-03-02T09:54:45;99191.87;;;9.88;100.00
51053;BME280;37093;37.716;-122.060;2024-03-02T09:57:30;99192.98;;;9.58;100.00
51053;BME280;37093;37.716;-122.060;2024-03-02T10:00:19;99190.57;;;9.62;100.00
51053;BME280;37093;37.716;-122.060;2024-03-02T10:02:40;99185.06;;;10.30;100.00
51053;BME280;37093;37.716;-122.060;2024-03-02T10:09:36;99239.72;;;5.50;100.00
51053;BME280;37093;37.716;-122.060;2024-03-02T10:11:45;99229.85;;;6.68;100.00
51053;BME280;37093;37.716;-122.060;2024-03-02T10:14:30;99230.69;;;5.50;100.00
51053;BME280;37093;37.716;-122.060;2024-03-02T10:28:23;99214.48;;;9.37;100.00
51053;BME280;37093;37.716;-122.060;2024-03-02T10:31:40;99209.38;;;9.04;100.00
51053;BME280;37093;37.716;-122.060;2024-03-02T10:33:08;99215.52;;;9.95;100.00
51053;BME280;37093;37.716;-122.060;2024-03-02T10:35:35;99214.12;;;11.01;95.25
51053;BME280;37093;37.716;-122.060;2024-03-02T10:38:14;99214.62;;;12.70;87.27
51053;BME280;37093;37.716;-122.060;2024-03-02T10:40:26;99205.32;;;13.10;83.76
51053;BME280;37093;37.716;-122.060;2024-03-02T10:43:21;99199.78;;;13.65;79.63
51053;BME280;37093;37.716;-122.060;2024-03-02T10:45:16;99201.54;;;13.16;81.21
51053;BME280;37093;37.716;-122.060;2024-03-02T10:47:40;99194.85;;;13.68;78.55
51053;BME280;37093;37.716;-122.060;2024-03-02T10:50:11;99199.56;;;11.78;85.28
51053;BME280;37093;37.716;-122.060;2024-03-02T10:52:31;99199.53;;;13.49;82.01
51053;BME280;37093;37.716;-122.060;2024-03-02T10:54:59;99194.62;;;14.21;78.73
51053;BME280;37093;37.716;-122.060;2024-03-02T10:57:23;99189.71;;;14.53;75.47
51053;BME280;37093;37.716;-122.060;2024-03-02T10:59:55;99193.95;;;13.86;77.15
51053;BME280;37093;37.716;-122.060;2024-03-02T11:02:33;99195.56;;;13.97;76.31
51053;BME280;37093;37.716;-122.060;2024-03-02T11:05:08;99188.24;;;14.01;76.03
51053;BME280;37093;37.716;-122.060;2024-03-02T11:07:41;99181.40;;;14.27;76.98
51053;BME280;37093;37.716;-122.060;2024-03-02T11:10:29;99186.68;;;14.12;79.57
51053;BME280;37093;37.716;-122.060;2024-03-02T11:13:08;99186.07;;;14.29;78.01
51053;BME280;37093;37.716;-122.060;2024-03-02T11:15:19;99185.08;;;13.79;79.73
51053;BME280;37093;37.716;-122.060;2024-03-02T11:17:43;99185.60;;;12.90;81.90
51053;BME280;37093;37.716;-122.060;2024-03-02T11:20:25;99184.27;;;13.05;85.46
51053;BME280;37093;37.716;-122.060;2024-03-02T11:22:36;99166.48;;;13.85;81.51
51053;BME280;37093;37.716;-122.060;2024-03-02T11:25:01;99172.17;;;13.34;80.91
51053;BME280;37093;37.716;-122.060;2024-03-02T11:28:07;99163.35;;;13.56;82.62
51053;BME280;37093;37.716;-122.060;2024-03-02T11:30:53;99180.39;;;11.96;86.45
51053;BME280;37093;37.716;-122.060;2024-03-02T11:32:56;99190.42;;;11.51;90.33
51053;BME280;37093;37.716;-122.060;2024-03-02T11:35:25;99203.03;;;10.92;92.87
51053;BME280;37093;37.716;-122.060;2024-03-02T11:37:41;99198.12;;;9.42;99.37
51053;BME280;37093;37.716;-122.060;2024-03-02T11:39:58;99204.24;;;8.08;100.00
51053;BME280;37093;37.716;-122.060;2024-03-02T11:42:28;99205.45;;;7.78;100.00
51053;BME280;37093;37.716;-122.060;2024-03-02T11:44:48;99198.10;;;7.76;100.00
51053;BME280;37093;37.716;-122.060;2024-03-02T11:47:16;99196.80;;;8.27;100.00
51053;BME280;37093;37.716;-122.060;2024-03-02T11:50:05;99192.68;;;9.24;100.00
51053;BME280;37093;37.716;-122.060;2024-03-02T11:52:19;99192.26;;;9.41;100.00
51053;BME280;37093;37.716;-122.060;2024-03-02T11:54:29;99194.83;;;9.44;100.00
51053;BME280;37093;37.716;-122.060;2024-03-02T11:56:56;99192.64;;;9.39;100.00
51053;BME280;37093;37.716;-122.060;2024-03-02T11:59:22;99190.95;;;9.43;100.00
51053;BME280;37093;37.716;-122.060;2024-03-02T12:01:43;99188.14;;;7.20;100.00
51053;BME280;37093;37.716;-122.060;2024-03-02T12:04:15;99173.65;;;10.41;100.00
51053;BME280;37093;37.716;-122.060;2024-03-02T12:06:34;99175.49;;;10.07;97.01
51053;BME280;37093;37.716;-122.060;2024-03-02T12:08:59;99169.19;;;9.62;100.00
51053;BME280;37093;37.716;-122.060;2024-03-02T12:11:47;99179.86;;;9.84;96.75
51053;BME280;37093;37.716;-122.060;2024-03-02T12:13:57;99186.66;;;9.39;98.67
51053;BME280;37093;37.716;-122.060;2024-03-02T12:16:28;99192.62;;;9.59;100.00
51053;BME280;37093;37.716;-122.060;2024-03-02T12:18:42;99207.49;;;8.55;98.31
51053;BME280;37093;37.716;-122.060;2024-03-02T12:21:07;99235.10;;;7.90;100.00
51053;BME280;37093;37.716;-122.060;2024-03-02T12:23:45;99254.93;;;6.09;100.00
51053;BME280;37093;37.716;-122.060;2024-03-02T12:26:47;99292.99;;;6.23;100.00
51053;BME280;37093;37.716;-122.060;2024-03-02T12:28:21;99301.99;;;3.95;100.00
51053;BME280;37093;37.716;-122.060;2024-03-02T12:30:56;99276.85;;;4.98;100.00
51053;BME280;37093;37.716;-122.060;2024-03-02T12:33:12;99270.45;;;5.15;100.00
51053;BME280;37093;37.716;-122.060;2024-03-02T12:38:37;99287.19;;;4.17;100.00
51053;BME280;37093;37.716;-122.060;2024-03-02T12:38:45;99285.78;;;5.87;100.00
51053;BME280;37093;37.716;-122.060;2024-03-02T12:41:25;99286.57;;;7.17;100.00
51053;BME280;37093;37.716;-122.060;2024-03-02T12:43:36;99285.43;;;7.41;100.00
51053;BME280;37093;37.716;-122.060;2024-03-02T12:47:48;99284.99;;;6.81;100.00
51053;BME280;37093;37.716;-122.060;2024-03-02T12:50:13;99288.63;;;5.91;100.00
51053;BME280;37093;37.716;-122.060;2024-03-02T12:52:39;99300.90;;;7.89;100.00
51053;BME280;37093;37.716;-122.060;2024-03-02T12:55:06;99294.38;;;7.01;100.00
51053;BME280;37093;37.716;-122.060;2024-03-02T12:58:03;99304.82;;;8.72;100.00
51053;BME280;37093;37.716;-122.060;2024-03-02T13:00:34;99296.22;;;7.24;100.00
51053;BME280;37093;37.716;-122.060;2024-03-02T13:02:48;99306.44;;;5.54;100.00
51053;BME280;37093;37.716;-122.060;2024-03-02T13:05:13;99305.98;;;6.63;100.00
51053;BME280;37093;37.716;-122.060;2024-03-02T13:08:00;99314.07;;;5.54;100.00
51053;BME280;37093;37.716;-122.060;2024-03-02T13:10:06;99300.75;;;7.09;100.00
51053;BME280;37093;37.716;-122.060;2024-03-02T13:13:50;99299.96;;;9.01;100.00
51053;BME280;37093;37.716;-122.060;2024-03-02T13:15:22;99301.69;;;10.08;97.74
51053;BME280;37093;37.716;-122.060;2024-03-02T13:18:06;99302.92;;;10.07;91.89
51053;BME280;37093;37.716;-122.060;2024-03-02T13:26:29;99296.41;;;12.87;80.21
51053;BME280;37093;37.716;-122.060;2024-03-02T13:28:55;99297.02;;;13.23;75.78
51053;BME280;37093;37.716;-122.060;2024-03-02T13:31:31;99295.63;;;13.70;72.68
51053;BME280;37093;37.716;-122.060;2024-03-02T13:34:05;99297.24;;;13.96;70.55
51053;BME280;37093;37.716;-122.060;2024-03-02T13:36:23;99294.19;;;14.00;69.44
51053;BME280;37093;37.716;-122.060;2024-03-02T13:38:37;99289.32;;;14.38;67.17
51053;BME280;37093;37.716;-122.060;2024-03-02T13:40:59;99291.25;;;14.36;67.90
51053;BME280;37093;37.716;-122.060;2024-03-02T13:43:26;99294.39;;;14.53;67.28
51053;BME280;37093;37.716;-122.060;2024-03-02T13:45:50;99292.84;;;14.57;65.68